Time;durP1;ratioP1;P1;durP2;ratioP2;P2;SDS_P1;SDS_P2;PMS_P1;PMS_P2;Temp;Humidity;BMP_temperature;BMP_pressure;BME280_temperature;BME280_humidity;BME280_pressure;Samples;Min_cycle;Max_cycle;Signal;HPM_P1;HPM_P2
2023/11/04 00:01:34;;;;;;;18.47;10.00;;;;;;;;;;5112200;28;20129;-70
2023/11/04 00:04:00;;;;;;;20.83;10.47;;;;;;;;;;5095653;28;20028;-69
2023/11/04 00:06:25;;;;;;;19.10;9.90;;;;;;;;;;5095277;28;20462;-69
2023/11/04 00:08:52;;;;;;;15.80;10.23;;;;;;;;;;5111751;28;20114;-69
2023/11/04 00:11:18;;;;;;;24.57;10.40;;;;;;;;;;5112741;28;20035;-71
2023/11/04 00:13:44;;;;;;;28.60;10.70;;;;;;;;;;5094938;28;20060;-71
2023/11/04 00:16:12;;;;;;;23.17;10.50;;;;;;;;;;5112078;28;20039;-71
2023/11/04 00:18:38;;;;;;;22.07;11.43;;;;;;;;;;5111756;28;20547;-72
2023/11/04 00:21:07;;;;;;;19.40;10.23;;;;;;;;;;5070084;28;20147;-71
2023/11/04 00:23:33;;;;;;;18.33;10.33;;;;;;;;;;5070261;28;20294;-71
2023/11/04 00:25:58;;;;;;;18.47;9.80;;;;;;;;;;5070481;28;20380;-72
2023/11/04 00:28:24;;;;;;;23.73;10.27;;;;;;;;;;5053586;28;20125;-71
2023/11/04 00:30:50;;;;;;;23.37;10.57;;;;;;;;;;5053479;28;20067;-71
2023/11/04 00:33:35;;;;;;;21.97;10.40;;;;;;;;;;5055671;28;20028;-71
2023/11/04 00:36:22;;;;;;;21.67;10.57;;;;;;;;;;5041121;28;20139;-71
2023/11/04 00:39:09;;;;;;;20.30;10.10;;;;;;;;;;5042007;28;20037;-73
2023/11/04 00:41:55;;;;;;;20.30;9.20;;;;;;;;;;5028323;28;20040;-71
2023/11/04 00:44:42;;;;;;;20.80;9.27;;;;;;;;;;5028974;28;20044;-71
2023/11/04 00:47:28;;;;;;;16.17;9.83;;;;;;;;;;5056294;28;20142;-72
2023/11/04 00:50:14;;;;;;;16.23;9.23;;;;;;;;;;5042183;28;20471;-71
2023/11/04 00:52:59;;;;;;;21.00;9.77;;;;;;;;;;5073361;28;20482;-71
2023/11/04 00:55:45;;;;;;;19.33;10.07;;;;;;;;;;5077295;28;20483;-71
2023/11/04 00:58:31;;;;;;;22.30;11.10;;;;;;;;;;5063472;28;20491;-71
2023/11/04 01:01:16;;;;;;;18.60;10.67;;;;;;;;;;5063369;28;20080;-71
2023/11/04 01:04:02;;;;;;;20.67;9.73;;;;;;;;;;5076152;28;20421;-71
2023/11/04 01:06:48;;;;;;;14.77;9.63;;;;;;;;;;5061742;28;20113;-72
2023/11/04 01:09:34;;;;;;;18.63;9.97;;;;;;;;;;5075862;28;20143;-74
2023/11/04 01:12:20;;;;;;;20.10;10.17;;;;;;;;;;5048168;28;20061;-71
2023/11/04 01:15:06;;;;;;;22.80;10.07;;;;;;;;;;5075605;28;20051;-71
2023/11/04 01:17:52;;;;;;;18.07;9.77;;;;;;;;;;5061862;28;20386;-70
2023/11/04 01:20:37;;;;;;;18.67;9.50;;;;;;;;;;5061805;28;21393;-70
2023/11/04 01:23:23;;;;;;;16.20;9.73;;;;;;;;;;5089547;28;20214;-70
2023/11/04 01:26:08;;;;;;;15.43;8.73;;;;;;;;;;5075571;28;20036;-70
2023/11/04 01:28:54;;;;;;;15.77;9.50;;;;;;;;;;5061403;28;20079;-71
2023/11/04 01:31:39;;;;;;;16.17;9.43;;;;;;;;;;5075739;28;20359;-70
2023/11/04 01:34:25;;;;;;;12.60;8.50;;;;;;;;;;5076120;28;20223;-70
2023/11/04 01:37:11;;;;;;;16.23;9.23;;;;;;;;;;5104574;28;20048;-70
2023/11/04 01:39:58;;;;;;;14.37;8.90;;;;;;;;;;5076720;28;20131;-70
2023/11/04 01:42:44;;;;;;;19.00;8.47;;;;;;;;;;5091205;28;20079;-70
2023/11/04 01:45:29;;;;;;;16.00;8.47;;;;;;;;;;5077153;28;20050;-70
2023/11/04 01:48:15;;;;;;;13.13;7.87;;;;;;;;;;5091756;28;20064;-70
2023/11/04 01:51:01;;;;;;;16.80;8.47;;;;;;;;;;5080945;28;20145;-70
2023/11/04 01:53:48;;;;;;;10.97;7.93;;;;;;;;;;5066797;28;20040;-70
2023/11/04 01:56:34;;;;;;;11.17;8.03;;;;;;;;;;5081133;28;20085;-70
2023/11/04 01:59:21;;;;;;;13.43;8.53;;;;;;;;;;5080602;28;20044;-70
2023/11/04 02:02:11;;;;;;;13.77;9.73;;;;;;;;;;5066756;28;20044;-73
2023/11/04 02:04:56;;;;;;;14.03;8.93;;;;;;;;;;5066542;28;20376;-70
2023/11/04 02:07:42;;;;;;;11.30;8.20;;;;;;;;;;5080392;28;20032;-71
2023/11/04 02:10:30;;;;;;;14.20;8.33;;;;;;;;;;5080485;28;20032;-70
2023/11/04 02:13:16;;;;;;;16.03;8.00;;;;;;;;;;5094692;28;20065;-70
2023/11/04 02:16:01;;;;;;;13.70;8.50;;;;;;;;;;5080153;28;20500;-71
2023/11/04 02:18:47;;;;;;;14.27;8.53;;;;;;;;;;5066467;28;20503;-70
2023/11/04 02:21:33;;;;;;;14.23;8.70;;;;;;;;;;5080597;28;20098;-71
2023/11/04 02:24:19;;;;;;;13.30;7.53;;;;;;;;;;5093925;28;20079;-72
2023/11/04 02:27:04;;;;;;;14.83;8.37;;;;;;;;;;5094218;28;20126;-71
2023/11/04 02:29:51;;;;;;;10.57;7.27;;;;;;;;;;5066133;28;20036;-71
2023/11/04 02:32:38;;;;;;;12.87;7.80;;;;;;;;;;5066214;28;20046;-71
2023/11/04 02:35:23;;;;;;;9.60;7.10;;;;;;;;;;5065389;28;20121;-70
2023/11/04 02:38:09;;;;;;;13.17;7.50;;;;;;;;;;5079696;28;20351;-72
2023/11/04 02:40:54;;;;;;;10.13;7.53;;;;;;;;;;5065932;28;20040;-70
2023/11/04 02:43:40;;;;;;;10.30;7.30;;;;;;;;;;5065553;28;20039;-71
2023/11/04 02:46:25;;;;;;;12.23;7.93;;;;;;;;;;5065593;28;20036;-70
2023/11/04 02:49:13;;;;;;;11.43;7.13;;;;;;;;;;5079363;28;20052;-71
2023/11/04 02:51:58;;;;;;;9.67;6.83;;;;;;;;;;5065816;28;20377;-70
2023/11/04 02:54:44;;;;;;;10.93;7.47;;;;;;;;;;5065511;28;20063;-71
2023/11/04 02:57:29;;;;;;;13.57;7.40;;;;;;;;;;5093059;28;20044;-70
2023/11/04 03:00:15;;;;;;;10.63;8.20;;;;;;;;;;5065007;28;20058;-70
2023/11/04 03:03:01;;;;;;;14.93;8.33;;;;;;;;;;5093116;28;20028;-71
2023/11/04 03:05:47;;;;;;;13.93;8.53;;;;;;;;;;5065041;28;20101;-71
2023/11/04 03:08:32;;;;;;;13.63;9.20;;;;;;;;;;5078745;28;20378;-70
2023/11/04 03:11:18;;;;;;;14.30;8.93;;;;;;;;;;5078578;28;20032;-70
2023/11/04 03:14:04;;;;;;;13.03;8.77;;;;;;;;;;5092949;28;20055;-70
2023/11/04 03:16:54;;;;;;;14.43;8.70;;;;;;;;;;5078459;28;20058;-70
2023/11/04 03:19:42;;;;;;;13.40;8.60;;;;;;;;;;5065123;28;20040;-69
2023/11/04 03:22:28;;;;;;;16.37;9.40;;;;;;;;;;5078652;28;20093;-70
2023/11/04 03:25:15;;;;;;;14.20;8.47;;;;;;;;;;5078735;28;20040;-71
2023/11/04 03:28:00;;;;;;;14.67;8.90;;;;;;;;;;5078691;28;20036;-71
2023/11/04 03:30:46;;;;;;;14.47;9.47;;;;;;;;;;5064848;28;20138;-71
2023/11/04 03:33:32;;;;;;;12.77;8.77;;;;;;;;;;5065105;28;20039;-71
2023/11/04 03:36:18;;;;;;;12.00;8.40;;;;;;;;;;5078220;28;20044;-72
2023/11/04 03:39:04;;;;;;;11.50;8.10;;;;;;;;;;5064874;28;20071;-71
2023/11/04 03:41:49;;;;;;;16.07;8.40;;;;;;;;;;5078064;28;20038;-71
2023/11/04 03:44:35;;;;;;;13.50;8.70;;;;;;;;;;5078218;28;20108;-71
2023/11/04 03:47:21;;;;;;;15.93;8.83;;;;;;;;;;5091881;28;20059;-72
2023/11/04 03:50:07;;;;;;;14.30;8.97;;;;;;;;;;5092652;28;20051;-71
2023/11/04 03:52:52;;;;;;;14.03;8.17;;;;;;;;;;5064643;28;20085;-70
2023/11/04 03:55:38;;;;;;;13.00;8.60;;;;;;;;;;5092705;28;20142;-70
2023/11/04 03:58:23;;;;;;;16.83;8.80;;;;;;;;;;5078083;28;20432;-72
2023/11/04 04:01:09;;;;;;;17.63;9.03;;;;;;;;;;5092712;28;20047;-71
2023/11/04 04:03:55;;;;;;;14.60;8.03;;;;;;;;;;5064052;28;20040;-71
2023/11/04 04:06:41;;;;;;;10.93;6.73;;;;;;;;;;5064259;28;20036;-71
2023/11/04 04:09:27;;;;;;;11.53;7.70;;;;;;;;;;5063747;28;20179;-71
2023/11/04 04:12:13;;;;;;;11.87;8.03;;;;;;;;;;5063601;28;20139;-70
2023/11/04 04:14:58;;;;;;;14.23;8.30;;;;;;;;;;5077546;28;20437;-71
2023/11/04 04:17:44;;;;;;;13.93;8.97;;;;;;;;;;5064167;28;20431;-73
2023/11/04 04:20:30;;;;;;;16.73;10.20;;;;;;;;;;5063610;28;20139;-72
2023/11/04 04:23:15;;;;;;;16.20;9.70;;;;;;;;;;5091936;28;20048;-72
2023/11/04 04:26:02;;;;;;;16.73;9.37;;;;;;;;;;5091692;28;20040;-70
2023/11/04 04:28:48;;;;;;;16.27;9.30;;;;;;;;;;5077419;28;20459;-70
2023/11/04 04:31:33;;;;;;;14.53;8.80;;;;;;;;;;5063848;28;20059;-70
2023/11/04 04:34:19;;;;;;;17.33;11.00;;;;;;;;;;5077472;28;20056;-72
2023/11/04 04:37:04;;;;;;;15.73;9.70;;;;;;;;;;5077600;28;20036;-71
2023/11/04 04:39:50;;;;;;;16.93;9.63;;;;;;;;;;5063511;28;20043;-71
2023/11/04 04:42:36;;;;;;;17.40;10.13;;;;;;;;;;5091382;28;20032;-71
2023/11/04 04:45:25;;;;;;;22.67;11.00;;;;;;;;;;5063671;28;20032;-71
2023/11/04 04:48:10;;;;;;;16.60;10.17;;;;;;;;;;5062888;28;20509;-72
2023/11/04 04:50:57;;;;;;;21.40;11.17;;;;;;;;;;5063333;28;20044;-72
2023/11/04 04:53:43;;;;;;;20.60;11.97;;;;;;;;;;5063537;28;20051;-67
2023/11/04 04:56:28;;;;;;;20.63;12.30;;;;;;;;;;5090901;28;20071;-75
2023/11/04 04:59:14;;;;;;;20.97;12.27;;;;;;;;;;5091738;28;20714;-73
2023/11/04 05:02:03;;;;;;;24.00;13.87;;;;;;;;;;5063610;28;20040;-74
2023/11/04 05:04:52;;;;;;;19.07;13.03;;;;;;;;;;5091149;28;20075;-74
2023/11/04 05:07:37;;;;;;;25.87;13.20;;;;;;;;;;5076814;28;20560;-73
2023/11/04 05:10:23;;;;;;;20.13;11.60;;;;;;;;;;5063633;28;20161;-74
2023/11/04 05:13:09;;;;;;;21.43;12.70;;;;;;;;;;5063115;28;20146;-72
2023/11/04 05:15:54;;;;;;;26.47;11.90;;;;;;;;;;5091427;28;20052;-71
2023/11/04 05:18:40;;;;;;;20.77;12.70;;;;;;;;;;5068301;28;20131;-72
2023/11/04 05:21:26;;;;;;;23.17;12.57;;;;;;;;;;5090812;28;20067;-69
2023/11/04 05:24:13;;;;;;;21.70;12.87;;;;;;;;;;5094620;28;20459;-74
2023/11/04 05:27:01;;;;;;;23.63;12.47;;;;;;;;;;5066985;28;20050;-69
2023/11/04 05:29:48;;;;;;;25.70;12.20;;;;;;;;;;5081281;28;20071;-73
2023/11/04 05:32:33;;;;;;;20.97;11.57;;;;;;;;;;5095280;28;20359;-73
2023/11/04 05:35:20;;;;;;;31.33;13.17;;;;;;;;;;5081555;28;20050;-71
2023/11/04 05:38:05;;;;;;;25.17;12.20;;;;;;;;;;5095358;28;20043;-74
2023/11/04 05:40:54;;;;;;;32.83;13.67;;;;;;;;;;5091685;28;20454;-75
2023/11/04 05:43:40;;;;;;;31.67;12.23;;;;;;;;;;5099951;28;20066;-74
2023/11/04 05:46:25;;;;;;;23.37;10.27;;;;;;;;;;5101060;28;20047;-75
2023/11/04 05:49:11;;;;;;;26.07;11.80;;;;;;;;;;5084238;28;20134;-73
2023/11/04 05:51:57;;;;;;;26.80;12.27;;;;;;;;;;5078383;28;20044;-78
2023/11/04 05:54:43;;;;;;;24.53;12.07;;;;;;;;;;5084188;28;20484;-74
2023/11/04 05:57:29;;;;;;;22.67;11.47;;;;;;;;;;5083502;28;20043;-74
2023/11/04 06:00:15;;;;;;;22.93;12.07;;;;;;;;;;5103275;28;20032;-73
2023/11/04 06:03:01;;;;;;;23.10;11.33;;;;;;;;;;5104344;28;20032;-74
2023/11/04 06:05:51;;;;;;;21.50;12.30;;;;;;;;;;5090101;28;20473;-73
2023/11/04 06:08:37;;;;;;;22.10;11.70;;;;;;;;;;5078462;28;20086;-71
2023/11/04 06:11:23;;;;;;;18.33;10.57;;;;;;;;;;5065145;28;20103;-71
2023/11/04 06:14:09;;;;;;;19.70;11.13;;;;;;;;;;5078280;28;20050;-72
2023/11/04 06:16:55;;;;;;;22.20;12.07;;;;;;;;;;5061904;28;20128;-72
2023/11/04 06:19:41;;;;;;;17.03;10.63;;;;;;;;;;5062923;28;20040;-71
2023/11/04 06:22:52;;;;;;;22.43;11.60;;;;;;;;;;5081343;28;20044;-69
2023/11/04 06:25:38;;;;;;;21.37;12.93;;;;;;;;;;5066960;28;20032;-73
2023/11/04 06:28:23;;;;;;;24.33;11.67;;;;;;;;;;5077697;28;20052;-71
2023/11/04 06:31:10;;;;;;;21.83;12.50;;;;;;;;;;5078205;28;20044;-72
2023/11/04 06:33:56;;;;;;;21.13;12.33;;;;;;;;;;5075103;28;20394;-73
2023/11/04 06:36:41;;;;;;;20.63;11.40;;;;;;;;;;5063174;28;20032;-72
2023/11/04 06:39:29;;;;;;;24.50;11.43;;;;;;;;;;5084316;28;20047;-73
2023/11/04 06:42:18;;;;;;;22.27;11.23;;;;;;;;;;5077909;28;20044;-70
2023/11/04 06:45:07;;;;;;;22.03;11.50;;;;;;;;;;5087619;28;20035;-71
2023/11/04 06:47:53;;;;;;;19.47;11.97;;;;;;;;;;5078817;28;20044;-72
2023/11/04 06:50:39;;;;;;;27.73;10.82;;;;;;;;;;5088024;28;20127;-70
2023/11/04 06:53:05;;;;;;;20.88;11.35;;;;;;;;;;5103433;28;20036;-73
2023/11/04 06:55:33;;;;;;;19.17;10.77;;;;;;;;;;5103569;28;20545;-73
2023/11/04 06:57:58;;;;;;;18.92;11.32;;;;;;;;;;5073024;28;20071;-74
2023/11/04 07:00:27;;;;;;;23.13;11.50;;;;;;;;;;5088643;28;20032;-73
2023/11/04 07:02:55;;;;;;;18.90;11.87;;;;;;;;;;5103414;28;20115;-70
2023/11/04 07:05:23;;;;;;;20.77;12.87;;;;;;;;;;5104226;28;20035;-73
2023/11/04 07:07:50;;;;;;;40.07;12.67;;;;;;;;;;5106069;28;20035;-75
2023/11/04 07:10:17;;;;;;;22.30;12.33;;;;;;;;;;5086568;28;20028;-73
2023/11/04 07:12:44;;;;;;;24.90;12.73;;;;;;;;;;5102061;28;20042;-72
2023/11/04 07:15:11;;;;;;;23.80;12.43;;;;;;;;;;5091728;28;20091;-73
2023/11/04 07:17:38;;;;;;;23.07;11.93;;;;;;;;;;5058705;28;20044;-73
2023/11/04 07:20:07;;;;;;;21.03;12.27;;;;;;;;;;5075427;28;20036;-78
2023/11/04 07:22:34;;;;;;;23.00;12.60;;;;;;;;;;5092415;28;20397;-74
2023/11/04 07:25:00;;;;;;;23.03;12.63;;;;;;;;;;5091874;28;20032;-77
2023/11/04 07:27:27;;;;;;;20.13;11.83;;;;;;;;;;5076042;28;20035;-77
2023/11/04 07:29:52;;;;;;;20.70;11.07;;;;;;;;;;5093646;28;20382;-77
2023/11/04 07:32:19;;;;;;;24.27;12.40;;;;;;;;;;5093092;28;20036;-75
2023/11/04 07:34:44;;;;;;;22.50;11.60;;;;;;;;;;5094157;28;20052;-77
2023/11/04 07:37:10;;;;;;;15.97;10.20;;;;;;;;;;5077227;28;20062;-75
2023/11/04 07:39:38;;;;;;;25.30;11.03;;;;;;;;;;5076069;28;20473;-76
2023/11/04 07:42:05;;;;;;;16.47;10.50;;;;;;;;;;5093778;28;20461;-76
2023/11/04 07:44:30;;;;;;;17.38;9.68;;;;;;;;;;5077158;28;20036;-76
2023/11/04 07:46:59;;;;;;;17.80;10.47;;;;;;;;;;5091957;28;20110;-75
2023/11/04 07:49:28;;;;;;;26.40;11.17;;;;;;;;;;5075265;28;20451;-69
2023/11/04 07:51:54;;;;;;;16.60;10.30;;;;;;;;;;5092295;28;20122;-72
2023/11/04 07:54:20;;;;;;;22.83;12.57;;;;;;;;;;5092317;28;20452;-71
2023/11/04 07:56:47;;;;;;;22.00;11.20;;;;;;;;;;5092251;28;20463;-72
2023/11/04 07:59:13;;;;;;;22.10;11.00;;;;;;;;;;5109403;28;20031;-77
2023/11/04 08:01:39;;;;;;;21.42;11.38;;;;;;;;;;5075742;28;20035;-74
2023/11/04 08:04:06;;;;;;;17.73;11.27;;;;;;;;;;5075045;28;20339;-67
2023/11/04 08:06:36;;;;;;;16.20;10.10;;;;;;;;;;5092917;28;20128;-76
2023/11/04 08:09:02;;;;;;;16.80;10.32;;;;;;;;;;5092177;28;20039;-75
2023/11/04 08:11:29;;;;;;;24.42;10.50;;;;;;;;;;5093514;28;20032;-76
2023/11/04 08:13:57;;;;;;;22.98;10.52;;;;;;;;;;5043355;28;20052;-76
2023/11/04 08:16:23;;;;;;;21.60;10.60;;;;;;;;;;5095405;28;20032;-76
2023/11/04 08:18:49;;;;;;;16.60;9.73;;;;;;;;;;5073040;28;20494;-76
2023/11/04 08:21:16;;;;;;;15.98;9.85;;;;;;;;;;5072491;28;20103;-76
2023/11/04 08:23:42;;;;;;;15.35;9.45;;;;;;;;;;5038529;28;20383;-76
2023/11/04 08:26:07;;;;;;;20.67;9.30;;;;;;;;;;5038225;28;20044;-76
2023/11/04 08:28:33;;;;;;;14.15;9.18;;;;;;;;;;5037099;28;20055;-76
2023/11/04 08:31:00;;;;;;;17.05;10.50;;;;;;;;;;5053761;28;20470;-70
2023/11/04 08:33:29;;;;;;;14.93;8.38;;;;;;;;;;5040042;28;20050;-72
2023/11/04 08:35:55;;;;;;;15.80;9.52;;;;;;;;;;5037728;28;20086;-76
2023/11/04 08:38:23;;;;;;;16.58;9.27;;;;;;;;;;5017757;28;20106;-74
2023/11/04 08:40:50;;;;;;;16.95;9.85;;;;;;;;;;5017103;28;20152;-75
2023/11/04 08:43:16;;;;;;;13.40;9.00;;;;;;;;;;5033375;28;20045;-75
2023/11/04 08:45:43;;;;;;;15.27;8.85;;;;;;;;;;5000440;28;20051;-76
2023/11/04 08:48:11;;;;;;;20.98;9.55;;;;;;;;;;5000483;28;20087;-74
2023/11/04 08:50:37;;;;;;;13.55;9.05;;;;;;;;;;5067162;28;20101;-73
2023/11/04 08:53:04;;;;;;;15.48;10.05;;;;;;;;;;5090135;28;20421;-75
2023/11/04 08:55:33;;;;;;;17.55;9.20;;;;;;;;;;5050138;28;20160;-75
2023/11/04 08:58:01;;;;;;;19.73;9.50;;;;;;;;;;5033238;28;20615;-70
2023/11/04 09:00:28;;;;;;;21.15;11.60;;;;;;;;;;5050376;28;20116;-77
2023/11/04 09:02:54;;;;;;;26.48;10.18;;;;;;;;;;5017243;28;20044;-74
2023/11/04 09:05:19;;;;;;;16.98;11.13;;;;;;;;;;5049831;28;20074;-74
2023/11/04 09:07:45;;;;;;;20.13;10.63;;;;;;;;;;5016763;28;20115;-74
2023/11/04 09:10:11;;;;;;;21.27;10.23;;;;;;;;;;5033347;28;20430;-74
2023/11/04 09:12:38;;;;;;;17.08;10.27;;;;;;;;;;5049559;28;20064;-75
2023/11/04 09:15:03;;;;;;;19.27;9.73;;;;;;;;;;5049857;28;20432;-74
2023/11/04 09:17:31;;;;;;;14.80;9.77;;;;;;;;;;5033614;28;20037;-72
2023/11/04 09:19:58;;;;;;;16.40;10.13;;;;;;;;;;5033295;28;20175;-75
2023/11/04 09:22:25;;;;;;;18.15;10.43;;;;;;;;;;5049946;28;20127;-77
2023/11/04 09:24:52;;;;;;;19.15;10.13;;;;;;;;;;5049534;28;20100;-74
2023/11/04 09:27:19;;;;;;;15.88;9.95;;;;;;;;;;5032827;28;20205;-75
2023/11/04 09:29:44;;;;;;;18.35;10.27;;;;;;;;;;5033013;28;20501;-74
2023/11/04 09:32:11;;;;;;;19.35;10.15;;;;;;;;;;5049372;28;20517;-75
2023/11/04 09:34:37;;;;;;;15.43;9.10;;;;;;;;;;5037146;28;20045;-75
2023/11/04 09:37:04;;;;;;;17.13;9.10;;;;;;;;;;5063942;28;20036;-73
2023/11/04 09:39:30;;;;;;;15.30;9.52;;;;;;;;;;5018486;28;20055;-78
2023/11/04 09:41:56;;;;;;;15.57;9.98;;;;;;;;;;5024091;28;20124;-75
2023/11/04 09:44:24;;;;;;;16.98;10.18;;;;;;;;;;5000154;28;20188;-75
2023/11/04 09:46:50;;;;;;;17.20;9.75;;;;;;;;;;5067855;28;20094;-74
2023/11/04 09:49:16;;;;;;;13.43;9.07;;;;;;;;;;5036548;28;20032;-75
2023/11/04 09:51:58;;;;;;;15.73;9.57;;;;;;;;;;5053784;28;20043;-75
2023/11/04 09:54:27;;;;;;;16.75;10.43;;;;;;;;;;5057252;28;20067;-74
2023/11/04 09:56:55;;;;;;;15.38;9.93;;;;;;;;;;5052851;28;20052;-75
2023/11/04 09:59:20;;;;;;;15.02;9.88;;;;;;;;;;5069466;28;20044;-76
2023/11/04 10:01:46;;;;;;;15.65;10.20;;;;;;;;;;5069545;28;20036;-74
2023/11/04 10:04:12;;;;;;;19.45;10.13;;;;;;;;;;5069517;28;20509;-73
2023/11/04 10:06:38;;;;;;;17.67;10.27;;;;;;;;;;5035797;28;20037;-73
2023/11/04 10:09:04;;;;;;;19.33;10.60;;;;;;;;;;5069467;28;20364;-74
2023/11/04 10:11:32;;;;;;;19.63;10.77;;;;;;;;;;5047769;28;20071;-78
2023/11/04 10:13:58;;;;;;;17.63;10.93;;;;;;;;;;5103651;28;20046;-78
2023/11/04 10:16:23;;;;;;;23.77;10.77;;;;;;;;;;5089379;28;20040;-78
2023/11/04 10:18:50;;;;;;;21.75;10.40;;;;;;;;;;5072767;28;20131;-76
2023/11/04 10:21:18;;;;;;;17.92;11.30;;;;;;;;;;5049758;28;20470;-76
2023/11/04 10:23:45;;;;;;;25.50;10.68;;;;;;;;;;5050377;28;20070;-76
2023/11/04 10:26:10;;;;;;;16.83;11.02;;;;;;;;;;5050227;28;20036;-75
2023/11/04 10:28:39;;;;;;;16.70;10.43;;;;;;;;;;5083018;28;20054;-75
2023/11/04 10:31:06;;;;;;;19.13;9.57;;;;;;;;;;5051847;28;20043;-73
2023/11/04 10:33:37;;;;;;;21.00;10.00;;;;;;;;;;5049396;28;20037;-77
2023/11/04 10:36:05;;;;;;;20.42;10.93;;;;;;;;;;5055861;28;20049;-72
2023/11/04 10:38:37;;;;;;;17.77;9.63;;;;;;;;;;5039471;28;20053;-77
2023/11/04 10:41:04;;;;;;;15.50;9.80;;;;;;;;;;5063980;28;20128;-76
2023/11/04 10:43:34;;;;;;;18.10;9.30;;;;;;;;;;5054067;28;20032;-76
2023/11/04 10:46:05;;;;;;;21.83;9.73;;;;;;;;;;5065010;28;20386;-75
2023/11/04 10:48:36;;;;;;;19.70;9.90;;;;;;;;;;5039816;28;20082;-75
2023/11/04 10:51:01;;;;;;;;;;;;;;;;;;5088060;28;20032;-76
2023/11/04 10:53:50;;;;;;;16.73;9.30;;;;;;;;;;5094484;28;20007;-74
2023/11/04 10:56:25;;;;;;;14.50;9.27;;;;;;;;;;5095094;28;20248;-76
2023/11/04 10:58:59;;;;;;;17.45;9.80;;;;;;;;;;5037514;28;20376;-77
2023/11/04 11:01:26;;;;;;;13.35;10.15;;;;;;;;;;5059085;28;20052;-76
2023/11/04 11:03:53;;;;;;;14.65;9.57;;;;;;;;;;5040664;28;20037;-78
2023/11/04 11:06:20;;;;;;;16.35;9.57;;;;;;;;;;5055307;28;20548;-70
2023/11/04 11:08:47;;;;;;;12.88;8.95;;;;;;;;;;5038604;28;20041;-73
2023/11/04 11:11:17;;;;;;;13.15;9.52;;;;;;;;;;5068513;28;20120;-73
2023/11/04 11:13:45;;;;;;;14.85;9.52;;;;;;;;;;5051644;28;20045;-73
2023/11/04 11:16:11;;;;;;;17.40;9.32;;;;;;;;;;5019523;28;20201;-73
2023/11/04 11:18:38;;;;;;;16.30;9.73;;;;;;;;;;5052179;28;20044;-73
2023/11/04 11:21:10;;;;;;;15.23;9.90;;;;;;;;;;5053589;28;20032;-73
2023/11/04 11:23:36;;;;;;;26.40;9.65;;;;;;;;;;5055172;28;20165;-73
2023/11/04 11:26:03;;;;;;;17.55;10.15;;;;;;;;;;5022486;28;20040;-73
2023/11/04 11:28:34;;;;;;;15.65;10.25;;;;;;;;;;5054721;28;20070;-73
2023/11/04 11:31:00;;;;;;;16.85;10.30;;;;;;;;;;5112302;28;20043;-73
2023/11/04 11:33:27;;;;;;;19.25;10.90;;;;;;;;;;5096195;28;20099;-73
2023/11/04 11:36:02;;;;;;;18.30;10.52;;;;;;;;;;5112742;28;20039;-73
2023/11/04 11:38:29;;;;;;;19.65;10.85;;;;;;;;;;5112858;28;20048;-73
2023/11/04 11:40:55;;;;;;;18.08;10.57;;;;;;;;;;5112854;28;20339;-73
2023/11/04 11:43:21;;;;;;;20.20;11.70;;;;;;;;;;5112761;28;20050;-73
2023/11/04 11:45:47;;;;;;;17.77;10.68;;;;;;;;;;5112584;28;20027;-73
2023/11/04 11:48:17;;;;;;;20.80;11.77;;;;;;;;;;5095563;28;20055;-73
2023/11/04 11:50:43;;;;;;;18.90;10.50;;;;;;;;;;5112784;28;20051;-72
2023/11/04 11:53:10;;;;;;;20.60;11.85;;;;;;;;;;5095803;28;20381;-73
2023/11/04 11:55:37;;;;;;;18.00;10.50;;;;;;;;;;5113581;28;20047;-73
2023/11/04 11:58:02;;;;;;;19.50;11.50;;;;;;;;;;5112646;28;20055;-73
2023/11/04 12:00:28;;;;;;;19.90;11.20;;;;;;;;;;5078688;28;20078;-73
2023/11/04 12:02:54;;;;;;;23.15;11.90;;;;;;;;;;5112603;28;20047;-74
2023/11/04 12:05:21;;;;;;;22.60;13.65;;;;;;;;;;5095436;28;20039;-73
2023/11/04 12:07:47;;;;;;;22.83;13.57;;;;;;;;;;5095447;28;20039;-73
2023/11/04 12:10:13;;;;;;;23.75;12.13;;;;;;;;;;5112567;28;20093;-72
2023/11/04 12:12:41;;;;;;;23.65;12.27;;;;;;;;;;5095416;28;20035;-72
2023/11/04 12:15:13;;;;;;;22.73;12.43;;;;;;;;;;5112355;28;20141;-74
2023/11/04 12:17:40;;;;;;;22.38;12.00;;;;;;;;;;5113232;28;20477;-72
2023/11/04 12:20:07;;;;;;;18.20;11.35;;;;;;;;;;5113400;28;20032;-73
2023/11/04 12:22:33;;;;;;;22.52;11.40;;;;;;;;;;5111948;28;20063;-73
2023/11/04 12:25:01;;;;;;;23.95;11.65;;;;;;;;;;5111794;28;20050;-73
2023/11/04 12:27:30;;;;;;;24.02;12.10;;;;;;;;;;5112087;28;20559;-73
2023/11/04 12:29:55;;;;;;;25.27;12.50;;;;;;;;;;5112942;28;20461;-73
2023/11/04 12:32:22;;;;;;;29.33;12.90;;;;;;;;;;5094398;28;20054;-72
2023/11/04 12:34:49;;;;;;;22.50;12.50;;;;;;;;;;5111599;28;20134;-73
2023/11/04 12:37:15;;;;;;;26.33;12.02;;;;;;;;;;5112832;28;20047;-72
2023/11/04 12:39:40;;;;;;;23.33;11.73;;;;;;;;;;5112829;28;20040;-72
2023/11/04 12:42:08;;;;;;;23.38;12.48;;;;;;;;;;5112037;28;20376;-74
2023/11/04 12:44:36;;;;;;;17.27;9.90;;;;;;;;;;5094710;28;20027;-73
2023/11/04 12:47:01;;;;;;;21.65;11.82;;;;;;;;;;5073345;28;20056;-72
2023/11/04 12:49:27;;;;;;;20.83;11.35;;;;;;;;;;5090419;28;20048;-73
2023/11/04 12:51:53;;;;;;;21.38;10.48;;;;;;;;;;5090276;28;20040;-73
2023/11/04 12:54:19;;;;;;;18.65;10.75;;;;;;;;;;5088221;28;20128;-72
2023/11/04 12:56:44;;;;;;;17.98;11.90;;;;;;;;;;5090383;28;20072;-75
2023/11/04 12:59:10;;;;;;;21.70;10.68;;;;;;;;;;5090931;28;20410;-73
2023/11/04 13:01:36;;;;;;;18.00;9.55;;;;;;;;;;5090765;28;20085;-73
2023/11/04 13:04:01;;;;;;;13.82;8.82;;;;;;;;;;5057223;28;20047;-73
2023/11/04 13:06:28;;;;;;;15.25;8.52;;;;;;;;;;5056686;28;20571;-73
2023/11/04 13:08:53;;;;;;;15.20;8.90;;;;;;;;;;5090367;28;20042;-73
2023/11/04 13:11:19;;;;;;;15.27;8.50;;;;;;;;;;5089944;28;20032;-73
2023/11/04 13:13:45;;;;;;;15.30;8.80;;;;;;;;;;5090177;28;20477;-73
2023/11/04 13:16:11;;;;;;;18.30;8.77;;;;;;;;;;5057176;28;20051;-73
2023/11/04 13:18:36;;;;;;;20.95;9.82;;;;;;;;;;5091466;28;20454;-73
2023/11/04 13:21:02;;;;;;;16.55;9.60;;;;;;;;;;5108290;28;20807;-72
2023/11/04 13:23:28;;;;;;;14.07;9.45;;;;;;;;;;5091158;28;20445;-72
2023/11/04 13:25:53;;;;;;;13.32;9.13;;;;;;;;;;5074427;28;20040;-72
2023/11/04 13:28:19;;;;;;;17.67;8.60;;;;;;;;;;5090980;28;20036;-73
2023/11/04 13:30:44;;;;;;;16.67;9.40;;;;;;;;;;5107649;28;20382;-72
2023/11/04 13:33:10;;;;;;;16.30;8.95;;;;;;;;;;5091918;28;20097;-73
2023/11/04 13:35:36;;;;;;;12.55;7.35;;;;;;;;;;5090494;28;20063;-73
2023/11/04 13:38:01;;;;;;;18.98;8.60;;;;;;;;;;5091604;28;20040;-73
2023/11/04 13:40:27;;;;;;;16.90;9.35;;;;;;;;;;5091025;28;20036;-72
2023/11/04 13:42:54;;;;;;;14.85;9.27;;;;;;;;;;5090638;28;20039;-73
2023/11/04 13:45:19;;;;;;;16.20;8.57;;;;;;;;;;5095344;28;20456;-72
2023/11/04 13:47:45;;;;;;;15.27;9.20;;;;;;;;;;5094643;28;20139;-73
2023/11/04 13:50:11;;;;;;;14.00;8.57;;;;;;;;;;5078026;28;20126;-74
2023/11/04 13:52:37;;;;;;;15.73;9.60;;;;;;;;;;5094512;28;20028;-72
2023/11/04 13:55:03;;;;;;;17.25;8.10;;;;;;;;;;5095638;28;20196;-72
2023/11/04 13:57:29;;;;;;;14.82;8.65;;;;;;;;;;5094777;28;20036;-72
2023/11/04 13:59:55;;;;;;;14.88;8.43;;;;;;;;;;5077652;28;20458;-72
2023/11/04 14:02:26;;;;;;;19.25;8.35;;;;;;;;;;5094297;28;20043;-73
2023/11/04 14:04:52;;;;;;;13.02;8.20;;;;;;;;;;5094406;28;20119;-73
2023/11/04 14:07:19;;;;;;;13.80;8.63;;;;;;;;;;5095216;28;20385;-73
2023/11/04 14:09:47;;;;;;;14.80;8.07;;;;;;;;;;5111299;28;20042;-72
2023/11/04 14:12:13;;;;;;;20.10;9.90;;;;;;;;;;5095512;28;20040;-73
2023/11/04 14:14:38;;;;;;;21.27;9.48;;;;;;;;;;5094052;28;20117;-73
2023/11/04 14:17:04;;;;;;;16.27;10.18;;;;;;;;;;5095096;28;20048;-72
2023/11/04 14:19:30;;;;;;;16.35;9.55;;;;;;;;;;5094095;28;20058;-72
2023/11/04 14:21:55;;;;;;;20.55;11.75;;;;;;;;;;5094939;28;20454;-72
2023/11/04 14:24:21;;;;;;;25.17;10.93;;;;;;;;;;5094854;28;20044;-72
2023/11/04 14:26:46;;;;;;;24.80;10.30;;;;;;;;;;5076991;28;20077;-71
2023/11/04 14:29:12;;;;;;;24.40;11.05;;;;;;;;;;5094254;28;20039;-71
2023/11/04 14:31:38;;;;;;;25.30;10.98;;;;;;;;;;5093729;28;20035;-70
2023/11/04 14:34:04;;;;;;;27.15;11.10;;;;;;;;;;5094731;28;20555;-70
2023/11/04 14:36:30;;;;;;;27.30;11.98;;;;;;;;;;5094796;28;20118;-70
2023/11/04 14:38:57;;;;;;;29.52;12.35;;;;;;;;;;5093807;28;20485;-70
2023/11/04 14:41:24;;;;;;;29.15;12.48;;;;;;;;;;5093423;28;20482;-70
2023/11/04 14:43:49;;;;;;;24.80;11.98;;;;;;;;;;5093651;28;20128;-70
2023/11/04 14:46:17;;;;;;;32.53;12.98;;;;;;;;;;5093651;28;20122;-70
2023/11/04 14:48:43;;;;;;;32.03;13.45;;;;;;;;;;5094337;28;20067;-69
2023/11/04 14:51:08;;;;;;;26.98;12.68;;;;;;;;;;5094217;28;20036;-70
2023/11/04 14:53:34;;;;;;;27.23;12.45;;;;;;;;;;5093207;28;20478;-70
2023/11/04 14:56:00;;;;;;;29.75;12.63;;;;;;;;;;5093528;28;20109;-70
2023/11/04 14:58:26;;;;;;;34.08;13.27;;;;;;;;;;5094263;28;20032;-70
2023/11/04 15:00:52;;;;;;;29.20;12.85;;;;;;;;;;5076493;28;20374;-70
2023/11/04 15:03:18;;;;;;;27.00;12.38;;;;;;;;;;5076675;28;20463;-70
2023/11/04 15:05:44;;;;;;;31.77;13.25;;;;;;;;;;5093550;28;20098;-70